Time;durP1;ratioP1;P1;durP2;ratioP2;P2;SDS_P1;SDS_P2;PMS_P1;PMS_P2;Temp;Humidity;BMP_temperature;BMP_pressure;BME280_temperature;BME280_humidity;BME280_pressure;Samples;Min_cycle;Max_cycle;Signal;HPM_P1;HPM_P2
2021/05/15 00:02:14;;;;;;;;;;;9.50;99.90;;;;;;4899616;29;20297;-77
2021/05/15 00:04:40;;;;;;;;;;;9.50;99.90;;;;;;4881862;29;19911;-78
2021/05/15 00:07:05;;;;;;;;;;;9.50;99.90;;;;;;4913673;29;20369;-77
2021/05/15 00:09:31;;;;;;;;;;;9.50;99.90;;;;;;4898975;29;20370;-77
2021/05/15 00:11:57;;;;;;;;;;;9.40;99.90;;;;;;4883492;29;19911;-78
2021/05/15 00:14:23;;;;;;;;;;;9.50;99.90;;;;;;4891040;29;20271;-78
2021/05/15 00:16:48;;;;;;;;;;;9.50;99.90;;;;;;4899259;29;20062;-78
2021/05/15 00:19:14;;;;;;;;;;;9.50;99.90;;;;;;4899140;29;20052;-78
2021/05/15 00:21:40;;;;;;;;;;;9.40;99.90;;;;;;4896033;29;20286;-77
2021/05/15 00:24:06;;;;;;;;;;;9.50;99.90;;;;;;4883266;29;19911;-78
2021/05/15 00:26:32;;;;;;;;;;;9.50;99.90;;;;;;4914885;29;19919;-78
2021/05/15 00:28:57;;;;;;;;;;;9.50;99.90;;;;;;4889836;29;20001;-78
2021/05/15 00:31:23;;;;;;;;;;;9.50;99.90;;;;;;4897652;29;20132;-78
2021/05/15 00:33:49;;;;;;;;;;;9.50;99.90;;;;;;4898810;29;19925;-76
2021/05/15 00:36:14;;;;;;;;;;;9.60;99.90;;;;;;4899199;29;19911;-77
2021/05/15 00:38:40;;;;;;;;;;;9.60;99.90;;;;;;4899315;29;19922;-78
2021/05/15 00:41:06;;;;;;;;;;;9.50;99.90;;;;;;4883657;29;19911;-77
2021/05/15 00:43:31;;;;;;;;;;;9.50;99.90;;;;;;4885538;29;19967;-78
2021/05/15 00:45:57;;;;;;;;;;;9.50;99.90;;;;;;4902401;29;20278;-79
2021/05/15 00:48:23;;;;;;;;;;;9.50;99.90;;;;;;4886552;29;20001;-79
2021/05/15 00:50:49;;;;;;;;;;;9.50;99.90;;;;;;4886016;29;19965;-78
2021/05/15 00:53:15;;;;;;;;;;;9.50;99.90;;;;;;4899044;29;19915;-79
2021/05/15 00:55:41;;;;;;;;;;;9.50;99.90;;;;;;4883503;29;19911;-77
2021/05/15 00:58:07;;;;;;;;;;;9.50;99.90;;;;;;4883481;29;19918;-77
2021/05/15 01:00:32;;;;;;;;;;;9.50;99.90;;;;;;4886541;29;19911;-78
2021/05/15 01:02:58;;;;;;;;;;;9.40;99.90;;;;;;4902670;29;19911;-78
2021/05/15 01:05:24;;;;;;;;;;;9.50;99.90;;;;;;4902306;29;19911;-77
2021/05/15 01:07:49;;;;;;;;;;;9.40;99.90;;;;;;4902440;29;19911;-77
2021/05/15 01:10:16;;;;;;;;;;;9.40;99.90;;;;;;4902034;29;19911;-77
2021/05/15 01:12:51;;;;;;;;;;;9.40;99.90;;;;;;4902440;29;19911;-78
2021/05/15 01:15:18;;;;;;;;;;;9.40;99.90;;;;;;4902428;29;19918;-78
2021/05/15 01:17:50;;;;;;;;;;;9.40;99.90;;;;;;4902188;29;20358;-77
2021/05/15 01:20:16;;;;;;;;;;;9.40;99.90;;;;;;4901677;29;19974;-78
2021/05/15 01:22:42;;;;;;;;;;;9.40;99.90;;;;;;4902040;29;19911;-77
2021/05/15 01:25:08;;;;;;;;;;;9.30;99.90;;;;;;4902066;29;19921;-78
2021/05/15 01:27:33;;;;;;;;;;;9.40;99.90;;;;;;4886704;29;19911;-78
2021/05/15 01:29:59;;;;;;;;;;;9.30;99.90;;;;;;4902372;29;19915;-79
2021/05/15 01:32:25;;;;;;;;;;;9.40;99.90;;;;;;4902274;29;19911;-77
2021/05/15 01:34:50;;;;;;;;;;;9.40;99.90;;;;;;4902247;29;19922;-77
2021/05/15 01:37:16;;;;;;;;;;;9.30;99.90;;;;;;4902097;29;19966;-77
2021/05/15 01:39:41;;;;;;;;;;;9.30;99.90;;;;;;4901633;29;20271;-78
2021/05/15 01:42:07;;;;;;;;;;;9.30;99.90;;;;;;4901396;29;19911;-77
2021/05/15 01:44:33;;;;;;;;;;;9.30;99.90;;;;;;4885780;29;19967;-77
2021/05/15 01:46:58;;;;;;;;;;;9.30;99.90;;;;;;4901465;29;19919;-78
2021/05/15 01:49:24;;;;;;;;;;;9.30;99.90;;;;;;4901635;29;19968;-77
2021/05/15 01:51:50;;;;;;;;;;;9.30;99.90;;;;;;4901433;29;19911;-77
2021/05/15 01:54:15;;;;;;;;;;;9.30;99.90;;;;;;4901832;29;19918;-78
2021/05/15 01:56:41;;;;;;;;;;;9.30;99.90;;;;;;4902242;29;20381;-78
2021/05/15 01:59:08;;;;;;;;;;;9.30;99.90;;;;;;4901671;29;20329;-77
2021/05/15 02:01:35;;;;;;;;;;;9.30;99.90;;;;;;4897786;29;20034;-77
2021/05/15 02:04:01;;;;;;;;;;;9.30;99.90;;;;;;4904462;29;19919;-77
2021/05/15 02:06:26;;;;;;;;;;;9.20;99.90;;;;;;4917895;29;20273;-77
2021/05/15 02:08:52;;;;;;;;;;;9.20;99.90;;;;;;4920392;29;19911;-77
2021/05/15 02:11:18;;;;;;;;;;;9.20;99.90;;;;;;4920469;29;19911;-77
2021/05/15 02:13:47;;;;;;;;;;;9.20;99.90;;;;;;4904812;29;19918;-77
2021/05/15 02:16:13;;;;;;;;;;;9.20;99.90;;;;;;4920354;29;19914;-78
2021/05/15 02:18:39;;;;;;;;;;;9.20;99.90;;;;;;4904621;29;19930;-77
2021/05/15 02:21:05;;;;;;;;;;;9.20;99.90;;;;;;4920193;29;19917;-77
2021/05/15 02:23:31;;;;;;;;;;;9.10;99.90;;;;;;4904560;29;19911;-77
2021/05/15 02:25:57;;;;;;;;;;;9.20;99.90;;;;;;4920254;29;19910;-79
2021/05/15 02:28:22;;;;;;;;;;;9.20;99.90;;;;;;4904405;29;19911;-77
2021/05/15 02:30:49;;;;;;;;;;;9.10;99.90;;;;;;4919739;29;20385;-77
2021/05/15 02:33:15;;;;;;;;;;;9.10;99.90;;;;;;4904238;29;19922;-77
2021/05/15 02:35:40;;;;;;;;;;;9.10;99.90;;;;;;4904457;29;19966;-77
2021/05/15 02:38:07;;;;;;;;;;;9.10;99.90;;;;;;4920218;29;19911;-78
2021/05/15 02:40:32;;;;;;;;;;;9.10;99.90;;;;;;4904231;29;19914;-78
2021/05/15 02:42:58;;;;;;;;;;;9.10;99.90;;;;;;4920079;29;20386;-78
2021/05/15 02:45:24;;;;;;;;;;;9.10;99.90;;;;;;4919862;29;19911;-77
2021/05/15 02:47:52;;;;;;;;;;;9.10;99.90;;;;;;4904273;29;20005;-77
2021/05/15 02:50:19;;;;;;;;;;;9.00;99.90;;;;;;4904001;29;20199;-77
2021/05/15 02:52:45;;;;;;;;;;;9.00;99.90;;;;;;4920099;29;19970;-77
2021/05/15 02:55:11;;;;;;;;;;;9.00;99.90;;;;;;4919948;29;19946;-78
2021/05/15 02:57:37;;;;;;;;;;;9.00;99.90;;;;;;4919762;29;19911;-78
2021/05/15 03:00:04;;;;;;;;;;;9.00;99.90;;;;;;4904019;29;19914;-78
2021/05/15 03:02:30;;;;;;;;;;;9.00;99.90;;;;;;4903952;29;20005;-78
2021/05/15 03:04:55;;;;;;;;;;;9.00;99.90;;;;;;4919437;29;20070;-78
2021/05/15 03:07:21;;;;;;;;;;;9.00;99.90;;;;;;4919708;29;19918;-77
2021/05/15 03:09:47;;;;;;;;;;;9.00;99.90;;;;;;4919704;29;19994;-78
2021/05/15 03:12:12;;;;;;;;;;;9.00;99.90;;;;;;4919257;29;19910;-77
2021/05/15 03:14:39;;;;;;;;;;;9.10;99.90;;;;;;4919272;29;19911;-77
2021/05/15 03:17:04;;;;;;;;;;;9.00;99.90;;;;;;4903654;29;19911;-77
2021/05/15 03:19:30;;;;;;;;;;;9.00;99.90;;;;;;4919399;29;19926;-77
2021/05/15 03:21:56;;;;;;;;;;;9.00;99.90;;;;;;4918551;29;19949;-77
2021/05/15 03:24:21;;;;;;;;;;;9.00;99.90;;;;;;4903426;29;20395;-78
2021/05/15 03:26:47;;;;;;;;;;;9.00;99.90;;;;;;4919371;29;19917;-78
2021/05/15 03:29:13;;;;;;;;;;;9.00;99.90;;;;;;4936237;29;19915;-78
2021/05/15 03:31:38;;;;;;;;;;;9.00;99.90;;;;;;4918961;29;20429;-77
2021/05/15 03:34:04;;;;;;;;;;;9.00;99.90;;;;;;4919035;29;19922;-77
2021/05/15 03:36:29;;;;;;;;;;;9.00;99.90;;;;;;4903480;29;19921;-77
2021/05/15 03:38:55;;;;;;;;;;;9.00;99.90;;;;;;4919032;29;19915;-77
2021/05/15 03:41:21;;;;;;;;;;;9.00;99.90;;;;;;4918994;29;19954;-77
2021/05/15 03:43:46;;;;;;;;;;;9.00;99.90;;;;;;4903127;29;20357;-78
2021/05/15 03:46:12;;;;;;;;;;;9.00;99.90;;;;;;4918565;29;20344;-79
2021/05/15 03:48:38;;;;;;;;;;;9.00;99.90;;;;;;4919170;29;19917;-77
2021/05/15 03:51:03;;;;;;;;;;;9.00;99.90;;;;;;4935555;29;20313;-77
2021/05/15 03:53:29;;;;;;;;;;;9.00;99.90;;;;;;4904755;29;19922;-78
2021/05/15 03:55:55;;;;;;;;;;;9.00;99.90;;;;;;4906487;29;19982;-79
2021/05/15 03:58:20;;;;;;;;;;;9.00;99.90;;;;;;4920951;29;20496;-76
2021/05/15 04:00:46;;;;;;;;;;;9.00;99.90;;;;;;4920439;29;19910;-76
2021/05/15 04:03:11;;;;;;;;;;;9.00;99.90;;;;;;4918508;29;19915;-76
2021/05/15 04:05:37;;;;;;;;;;;9.00;99.90;;;;;;4902649;29;19918;-76
2021/05/15 04:08:03;;;;;;;;;;;9.00;99.90;;;;;;4918570;29;19958;-76
2021/05/15 04:10:29;;;;;;;;;;;9.00;99.90;;;;;;4902273;29;19911;-76
2021/05/15 04:15:42;;;;;;;;;;;9.00;99.90;;;;;;4918302;29;19911;-76
2021/05/15 04:18:12;;;;;;;;;;;9.00;99.90;;;;;;4918277;29;20005;-76
2021/05/15 04:20:38;;;;;;;;;;;9.00;99.90;;;;;;4902186;29;19914;-76
2021/05/15 04:23:04;;;;;;;;;;;8.90;99.90;;;;;;4902504;29;19958;-76
2021/05/15 04:25:29;;;;;;;;;;;9.00;99.90;;;;;;4918131;29;19918;-76
2021/05/15 04:28:10;;;;;;;;;;;9.00;99.90;;;;;;4918569;29;19911;-76
2021/05/15 04:30:35;;;;;;;;;;;9.00;99.90;;;;;;4934891;29;19911;-76
2021/05/15 04:33:01;;;;;;;;;;;9.00;99.90;;;;;;4917259;29;20338;-78
2021/05/15 04:35:27;;;;;;;;;;;9.00;99.90;;;;;;4902107;29;19914;-76
2021/05/15 04:37:53;;;;;;;;;;;9.00;99.90;;;;;;4902474;29;19918;-76
2021/05/15 04:40:18;;;;;;;;;;;8.90;99.90;;;;;;4901815;29;20424;-76
2021/05/15 04:42:44;;;;;;;;;;;9.00;99.90;;;;;;4917983;29;19993;-76
2021/05/15 04:45:11;;;;;;;;;;;9.00;99.90;;;;;;4917804;29;19911;-78
2021/05/15 04:47:37;;;;;;;;;;;9.00;99.90;;;;;;4902495;29;19939;-76
2021/05/15 04:50:03;;;;;;;;;;;9.00;99.90;;;;;;4901991;29;20009;-76
2021/05/15 04:52:29;;;;;;;;;;;9.00;99.90;;;;;;4917768;29;19915;-76
2021/05/15 04:54:55;;;;;;;;;;;9.00;99.90;;;;;;4917960;29;19918;-76
2021/05/15 04:57:20;;;;;;;;;;;9.00;99.90;;;;;;4917907;29;19911;-76
2021/05/15 04:59:46;;;;;;;;;;;9.00;99.90;;;;;;4917708;29;20374;-76
2021/05/15 05:02:11;;;;;;;;;;;9.00;99.90;;;;;;4917732;29;19910;-75
2021/05/15 05:04:37;;;;;;;;;;;9.00;99.90;;;;;;4917730;29;20263;-77
2021/05/15 05:07:03;;;;;;;;;;;9.00;99.90;;;;;;4917925;29;20263;-76
2021/05/15 05:09:29;;;;;;;;;;;9.00;99.90;;;;;;4901886;29;19915;-76
2021/05/15 05:11:55;;;;;;;;;;;9.00;99.90;;;;;;4917470;29;19911;-76
2021/05/15 05:14:20;;;;;;;;;;;9.00;99.90;;;;;;4917638;29;20366;-76
2021/05/15 05:16:46;;;;;;;;;;;9.00;99.90;;;;;;4917640;29;19911;-76
2021/05/15 05:19:12;;;;;;;;;;;9.00;99.90;;;;;;4917801;29;19914;-75
2021/05/15 05:21:41;;;;;;;;;;;9.00;99.90;;;;;;4917245;29;19917;-77
2021/05/15 05:24:07;;;;;;;;;;;9.00;99.90;;;;;;4917468;29;20413;-76
2021/05/15 05:26:36;;;;;;;;;;;9.00;99.90;;;;;;4917311;29;20002;-76
2021/05/15 05:29:07;;;;;;;;;;;9.00;99.90;;;;;;4917690;29;19911;-76
2021/05/15 05:31:36;;;;;;;;;;;9.00;99.90;;;;;;4901811;29;19911;-78
2021/05/15 05:34:03;;;;;;;;;;;9.00;99.90;;;;;;4901766;29;19965;-76
2021/05/15 05:36:29;;;;;;;;;;;9.00;99.90;;;;;;4917341;29;19915;-78
2021/05/15 05:38:55;;;;;;;;;;;9.00;99.90;;;;;;4917263;29;20521;-75
2021/05/15 05:41:22;;;;;;;;;;;9.00;99.90;;;;;;4916211;29;19910;-75
2021/05/15 05:43:48;;;;;;;;;;;9.00;99.90;;;;;;4901822;29;19961;-76
2021/05/15 05:46:14;;;;;;;;;;;9.10;99.90;;;;;;4918908;29;19911;-78
2021/05/15 05:48:39;;;;;;;;;;;9.00;99.90;;;;;;4920833;29;20025;-76
2021/05/15 05:51:06;;;;;;;;;;;9.00;99.90;;;;;;4937623;29;20384;-76
2021/05/15 05:53:31;;;;;;;;;;;9.00;99.90;;;;;;4920868;29;19918;-75
2021/05/15 05:55:57;;;;;;;;;;;8.90;99.90;;;;;;4937898;29;20285;-75
2021/05/15 05:58:23;;;;;;;;;;;9.00;99.90;;;;;;4920801;29;20523;-77
2021/05/15 06:00:48;;;;;;;;;;;9.00;99.90;;;;;;4920384;29;19961;-76
2021/05/15 06:03:14;;;;;;;;;;;9.10;99.90;;;;;;4920821;29;20362;-76
2021/05/15 06:05:39;;;;;;;;;;;9.30;99.90;;;;;;4920235;29;20358;-76
2021/05/15 06:08:06;;;;;;;;;;;9.40;99.90;;;;;;4920698;29;19915;-78
2021/05/15 06:10:32;;;;;;;;;;;9.50;99.90;;;;;;4904673;29;19966;-76
2021/05/15 06:12:57;;;;;;;;;;;9.60;99.90;;;;;;4920574;29;19911;-76
2021/05/15 06:15:24;;;;;;;;;;;9.60;99.90;;;;;;4920326;29;20366;-76
2021/05/15 06:17:51;;;;;;;;;;;9.60;99.90;;;;;;4920698;29;19915;-76
2021/05/15 06:20:17;;;;;;;;;;;9.60;99.90;;;;;;4920195;29;19925;-76
2021/05/15 06:22:42;;;;;;;;;;;9.70;99.90;;;;;;4920378;29;19915;-76
2021/05/15 06:25:08;;;;;;;;;;;9.80;99.90;;;;;;4904541;29;20054;-76
2021/05/15 06:27:34;;;;;;;;;;;9.90;99.90;;;;;;4920332;29;19911;-76
2021/05/15 06:29:59;;;;;;;;;;;10.00;99.90;;;;;;4920127;29;19918;-77
2021/05/15 06:32:25;;;;;;;;;;;10.10;99.90;;;;;;4919947;29;20503;-76
2021/05/15 06:34:51;;;;;;;;;;;10.20;99.90;;;;;;4919820;29;19962;-78
2021/05/15 06:37:17;;;;;;;;;;;10.20;99.90;;;;;;4904558;29;19917;-78
2021/05/15 06:39:42;;;;;;;;;;;10.40;99.90;;;;;;4910663;29;20018;-75
2021/05/15 06:42:08;;;;;;;;;;;10.40;99.90;;;;;;4916643;29;19918;-76
2021/05/15 06:44:34;;;;;;;;;;;10.40;99.90;;;;;;4899449;29;19993;-76
2021/05/15 06:46:59;;;;;;;;;;;10.50;99.90;;;;;;4917712;29;20275;-79
2021/05/15 06:49:25;;;;;;;;;;;10.50;99.90;;;;;;4885084;29;19984;-76
2021/05/15 06:51:51;;;;;;;;;;;10.60;99.90;;;;;;4885154;29;19933;-76
2021/05/15 06:54:17;;;;;;;;;;;10.60;99.90;;;;;;4900663;29;19938;-77
2021/05/15 06:56:43;;;;;;;;;;;10.70;99.90;;;;;;4900777;29;20009;-77
2021/05/15 06:59:08;;;;;;;;;;;10.80;99.90;;;;;;4887811;29;20018;-77
2021/05/15 07:01:34;;;;;;;;;;;10.90;99.90;;;;;;4917277;29;19925;-75
2021/05/15 07:03:59;;;;;;;;;;;11.00;99.90;;;;;;4922212;29;19951;-77
2021/05/15 07:06:25;;;;;;;;;;;11.10;99.90;;;;;;4913081;29;20390;-79
2021/05/15 07:08:51;;;;;;;;;;;11.20;99.90;;;;;;4904632;29;19911;-80
2021/05/15 07:11:17;;;;;;;;;;;11.20;99.90;;;;;;4901143;29;19911;-75
2021/05/15 07:13:42;;;;;;;;;;;11.20;99.90;;;;;;4884806;29;20147;-76
2021/05/15 07:16:08;;;;;;;;;;;11.40;99.90;;;;;;4886724;29;19911;-76
2021/05/15 07:18:34;;;;;;;;;;;11.40;99.90;;;;;;4899041;29;20334;-77
2021/05/15 07:20:59;;;;;;;;;;;11.50;99.90;;;;;;4900243;29;19915;-76
2021/05/15 07:23:25;;;;;;;;;;;11.60;99.90;;;;;;4902477;29;19911;-80
2021/05/15 07:25:51;;;;;;;;;;;11.70;99.90;;;;;;4896780;29;19911;-80
2021/05/15 07:28:17;;;;;;;;;;;11.80;99.90;;;;;;4904452;29;19918;-81
2021/05/15 07:30:43;;;;;;;;;;;11.90;99.90;;;;;;4904160;29;20334;-80
2021/05/15 07:33:11;;;;;;;;;;;12.00;99.90;;;;;;4914536;29;19915;-80
2021/05/15 07:35:37;;;;;;;;;;;12.00;99.90;;;;;;4922987;29;19918;-80
2021/05/15 07:38:03;;;;;;;;;;;12.10;99.90;;;;;;4913460;29;19911;-78
2021/05/15 07:40:29;;;;;;;;;;;12.20;99.90;;;;;;4900457;29;19915;-79
2021/05/15 07:42:55;;;;;;;;;;;12.30;99.90;;;;;;4883849;29;20290;-78
2021/05/15 07:45:21;;;;;;;;;;;12.20;99.90;;;;;;4898582;29;19911;-76
2021/05/15 07:47:46;;;;;;;;;;;12.30;99.90;;;;;;4897169;29;20423;-76
2021/05/15 07:50:12;;;;;;;;;;;12.40;99.90;;;;;;4899146;29;19946;-76
2021/05/15 07:52:38;;;;;;;;;;;12.40;99.90;;;;;;4915488;29;19911;-78
2021/05/15 07:55:05;;;;;;;;;;;12.50;99.90;;;;;;4899140;29;19915;-76
2021/05/15 07:57:31;;;;;;;;;;;12.50;99.90;;;;;;4916086;29;20398;-76
2021/05/15 07:59:56;;;;;;;;;;;12.50;99.90;;;;;;4899286;29;19958;-78
2021/05/15 08:02:27;;;;;;;;;;;12.50;99.90;;;;;;4898857;29;19914;-76
2021/05/15 08:04:52;;;;;;;;;;;12.40;99.90;;;;;;4883810;29;20310;-76
2021/05/15 08:07:18;;;;;;;;;;;12.30;99.90;;;;;;4882832;29;19911;-76
2021/05/15 08:09:44;;;;;;;;;;;12.40;99.90;;;;;;4897694;29;19962;-77
2021/05/15 08:12:09;;;;;;;;;;;12.60;99.90;;;;;;4897808;29;19915;-77
2021/05/15 08:14:35;;;;;;;;;;;12.80;99.90;;;;;;4898046;29;19915;-76
2021/05/15 08:17:01;;;;;;;;;;;13.10;99.90;;;;;;4915351;29;20334;-76
2021/05/15 08:19:27;;;;;;;;;;;13.10;99.90;;;;;;4911480;29;19915;-76
2021/05/15 08:21:53;;;;;;;;;;;13.10;99.90;;;;;;4915089;29;19911;-76
2021/05/15 08:24:20;;;;;;;;;;;13.10;99.90;;;;;;4898397;29;19918;-76
2021/05/15 08:26:45;;;;;;;;;;;13.00;99.90;;;;;;4903952;29;19958;-76
2021/05/15 08:29:12;;;;;;;;;;;13.00;99.90;;;;;;4906126;29;20013;-76
2021/05/15 08:31:37;;;;;;;;;;;13.00;99.90;;;;;;4898546;29;19911;-77
2021/05/15 08:34:03;;;;;;;;;;;12.80;99.90;;;;;;4905150;29;20391;-76
2021/05/15 08:36:29;;;;;;;;;;;12.80;99.90;;;;;;4921101;29;20386;-77
2021/05/15 08:38:56;;;;;;;;;;;12.90;99.90;;;;;;4899850;29;19982;-77
2021/05/15 08:41:21;;;;;;;;;;;13.00;99.90;;;;;;4898861;29;19964;-76
2021/05/15 08:43:47;;;;;;;;;;;13.10;99.90;;;;;;4906081;29;19947;-78
2021/05/15 08:46:13;;;;;;;;;;;13.20;99.90;;;;;;4882029;29;19921;-78
2021/05/15 08:48:40;;;;;;;;;;;13.20;99.90;;;;;;4898413;29;19914;-78
2021/05/15 08:51:06;;;;;;;;;;;13.20;99.90;;;;;;4912185;29;19918;-76
2021/05/15 08:53:32;;;;;;;;;;;13.30;99.90;;;;;;4889056;29;19911;-78
2021/05/15 08:55:58;;;;;;;;;;;13.50;99.90;;;;;;4901459;29;20604;-75
2021/05/15 08:58:23;;;;;;;;;;;13.60;99.90;;;;;;4917679;29;19910;-77
2021/05/15 09:00:50;;;;;;;;;;;13.70;99.90;;;;;;4917748;29;19915;-76
2021/05/15 09:03:17;;;;;;;;;;;13.90;99.90;;;;;;4924275;29;20369;-76
2021/05/15 09:05:50;;;;;;;;;;;14.00;99.90;;;;;;4883662;29;19923;-77
2021/05/15 09:08:22;;;;;;;;;;;14.20;99.90;;;;;;4913913;29;20003;-76
2021/05/15 09:10:54;;;;;;;;;;;14.20;99.90;;;;;;4887144;29;19978;-76
2021/05/15 09:13:25;;;;;;;;;;;14.40;99.90;;;;;;4900059;29;19960;-75
2021/05/15 09:15:53;;;;;;;;;;;14.50;99.90;;;;;;4898877;29;19970;-76
2021/05/15 09:18:24;;;;;;;;;;;14.40;99.90;;;;;;4898530;29;20026;-75
2021/05/15 09:20:57;;;;;;;;;;;14.20;99.90;;;;;;4887092;29;20021;-76
2021/05/15 09:23:29;;;;;;;;;;;14.20;99.90;;;;;;4886500;29;20021;-76
2021/05/15 09:25:56;;;;;;;;;;;14.10;99.90;;;;;;4901158;29;19954;-76
2021/05/15 09:28:37;;;;;;;;;;;14.20;99.90;;;;;;4918752;29;19966;-78
2021/05/15 09:31:15;;;;;;;;;;;14.40;99.90;;;;;;4901068;29;20469;-77
2021/05/15 09:33:49;;;;;;;;;;;14.60;99.90;;;;;;4886841;29;19969;-76
2021/05/15 09:36:21;;;;;;;;;;;14.80;99.90;;;;;;4881979;29;19923;-76
2021/05/15 09:39:13;;;;;;;;;;;14.90;99.90;;;;;;4906628;29;19929;-75
2021/05/15 09:41:40;;;;;;;;;;;15.00;99.90;;;;;;4920000;29;19926;-75
2021/05/15 09:44:08;;;;;;;;;;;15.00;99.90;;;;;;4920424;29;19965;-76
2021/05/15 09:46:36;;;;;;;;;;;15.20;99.90;;;;;;4904402;29;19922;-76
2021/05/15 09:49:08;;;;;;;;;;;15.30;99.90;;;;;;4921250;29;19958;-76
2021/05/15 09:51:36;;;;;;;;;;;15.30;99.90;;;;;;4904018;29;19922;-77
2021/05/15 09:54:15;;;;;;;;;;;15.10;99.30;;;;;;4920611;29;20013;-75
2021/05/15 09:56:41;;;;;;;;;;;15.00;99.90;;;;;;4904578;29;19923;-77
2021/05/15 09:59:10;;;;;;;;;;;14.90;99.90;;;;;;4937790;29;19922;-80
2021/05/15 10:01:40;;;;;;;;;;;14.70;99.90;;;;;;4907940;29;20029;-80
2021/05/15 10:04:07;;;;;;;;;;;14.60;99.90;;;;;;4907453;29;19922;-79
2021/05/15 10:06:34;;;;;;;;;;;14.50;98.50;;;;;;4924674;29;19922;-79
2021/05/15 10:09:01;;;;;;;;;;;14.60;99.90;;;;;;4894034;29;19923;-81
2021/05/15 10:11:27;;;;;;;;;;;14.90;97.60;;;;;;4905647;29;20298;-81
2021/05/15 10:13:55;;;;;;;;;;;15.00;99.40;;;;;;4908344;29;19974;-80
2021/05/15 10:16:22;;;;;;;;;;;15.00;97.10;;;;;;4910980;29;19923;-81
2021/05/15 10:18:55;;;;;;;;;;;14.90;97.00;;;;;;4897101;29;19962;-81
2021/05/15 10:21:22;;;;;;;;;;;14.80;96.70;;;;;;4939513;23;19930;-81
2021/05/15 10:23:49;;;;;;;;;;;14.80;96.90;;;;;;4886385;29;19975;-81
2021/05/15 10:26:17;;;;;;;;;;;14.80;98.20;;;;;;4884424;29;20069;-80
2021/05/15 10:29:00;;;;;;;;;;;15.10;96.40;;;;;;4884834;29;19923;-81
2021/05/15 10:31:37;;;;;;;;;;;15.40;96.60;;;;;;4898897;29;19946;-81
2021/05/15 10:34:05;;;;;;;;;;;15.50;96.90;;;;;;4901798;29;20325;-81
2021/05/15 10:36:42;;;;;;;;;;;15.40;93.10;;;;;;4886611;29;19951;-81
2021/05/15 10:39:25;;;;;;;;;;;15.40;93.70;;;;;;4889610;29;20298;-81
2021/05/15 10:41:53;;;;;;;;;;;15.40;93.70;;;;;;4887900;29;19945;-81
2021/05/15 10:44:20;;;;;;;;;;;15.60;93.90;;;;;;4892577;29;20038;-80
2021/05/15 10:46:49;;;;;;;;;;;16.00;95.20;;;;;;4884905;29;20299;-81
2021/05/15 10:49:23;;;;;;;;;;;16.20;93.70;;;;;;4901247;29;20314;-81
2021/05/15 10:51:55;;;;;;;;;;;16.20;94.60;;;;;;4885228;29;19923;-81
2021/05/15 10:54:32;;;;;;;;;;;16.00;92.10;;;;;;4886747;29;19930;-81
2021/05/15 10:57:01;;;;;;;;;;;15.70;91.10;;;;;;4901117;29;19965;-81
2021/05/15 10:59:28;;;;;;;;;;;15.80;93.30;;;;;;4883014;29;19930;-81
2021/05/15 11:01:58;;;;;;;;;;;15.80;92.30;;;;;;4890756;29;19935;-81
2021/05/15 11:04:29;;;;;;;;;;;15.90;91.30;;;;;;4879726;29;19955;-81
2021/05/15 11:07:04;;;;;;;;;;;15.90;91.30;;;;;;4901900;29;19931;-81
2021/05/15 11:09:33;;;;;;;;;;;15.80;90.70;;;;;;4885522;29;20454;-81
2021/05/15 11:12:06;;;;;;;;;;;15.60;91.90;;;;;;4884730;29;19923;-80
2021/05/15 11:14:34;;;;;;;;;;;15.50;93.50;;;;;;4901159;29;19927;-81
2021/05/15 11:17:04;;;;;;;;;;;15.40;88.80;;;;;;4899186;29;19924;-81
2021/05/15 11:19:32;;;;;;;;;;;15.30;89.80;;;;;;4905261;29;19931;-80
2021/05/15 11:22:05;;;;;;;;;;;15.30;90.40;;;;;;4890901;29;19927;-81
2021/05/15 11:24:36;;;;;;;;;;;15.40;90.50;;;;;;4905302;29;19924;-81
2021/05/15 11:27:14;;;;;;;;;;;15.60;90.40;;;;;;4888334;29;19954;-81
2021/05/15 11:29:43;;;;;;;;;;;15.90;89.50;;;;;;4889677;29;20005;-80
2021/05/15 11:32:17;;;;;;;;;;;16.20;88.30;;;;;;4888967;29;20010;-82
2021/05/15 11:34:50;;;;;;;;;;;16.40;89.30;;;;;;4889741;29;19930;-81
2021/05/15 11:37:17;;;;;;;;;;;16.40;83.90;;;;;;4905865;29;20013;-80
2021/05/15 11:39:50;;;;;;;;;;;16.50;85.40;;;;;;4887636;29;19979;-80
2021/05/15 11:42:17;;;;;;;;;;;16.60;80.40;;;;;;4885028;29;19927;-80
2021/05/15 11:44:54;;;;;;;;;;;16.70;80.50;;;;;;4884016;29;20391;-80
2021/05/15 11:47:22;;;;;;;;;;;16.80;84.50;;;;;;4870591;29;19987;-81
2021/05/15 11:49:57;;;;;;;;;;;16.70;74.90;;;;;;4866100;29;20247;-81
2021/05/15 11:52:34;;;;;;;;;;;16.80;76.80;;;;;;4886236;29;19930;-80
2021/05/15 11:55:03;;;;;;;;;;;16.80;74.00;;;;;;4889798;29;19923;-82
2021/05/15 11:57:30;;;;;;;;;;;16.90;80.10;;;;;;4903890;29;19928;-81
2021/05/15 12:00:09;;;;;;;;;;;17.10;79.70;;;;;;4887912;29;19963;-81
2021/05/15 12:02:40;;;;;;;;;;;17.20;76.50;;;;;;4903022;29;19930;-81
2021/05/15 12:05:13;;;;;;;;;;;17.20;79.40;;;;;;4890026;29;19928;-80
2021/05/15 12:07:51;;;;;;;;;;;17.40;72.80;;;;;;4895892;29;19931;-81
2021/05/15 12:13:08;;;;;;;;;;;17.80;71.00;;;;;;5334913;23;19922;-81
2021/05/15 12:15:39;;;;;;;;;;;17.70;65.60;;;;;;4913521;29;19990;-81
2021/05/15 12:18:07;;;;;;;;;;;17.80;66.10;;;;;;4903108;29;19923;-82
2021/05/15 12:20:42;;;;;;;;;;;17.90;66.10;;;;;;4898570;29;19929;-82
2021/05/15 12:23:22;;;;;;;;;;;17.90;67.10;;;;;;4881880;29;19955;-82
2021/05/15 12:26:49;;;;;;;;;;;17.70;62.50;;;;;;4900248;29;20014;-81
2021/05/15 12:30:27;;;;;;;;;;;17.60;66.00;;;;;;4891758;29;19919;-82
2021/05/15 12:33:27;;;;;;;;;;;17.60;65.40;;;;;;4870921;29;19924;-81
2021/05/15 12:36:32;;;;;;;;;;;17.50;67.30;;;;;;4891492;29;19923;-82
2021/05/15 12:39:00;;;;;;;;;;;17.70;69.20;;;;;;4889504;29;19924;-80
2021/05/15 12:41:30;;;;;;;;;;;17.50;70.10;;;;;;4874314;29;19923;-82
2021/05/15 12:44:05;;;;;;;;;;;17.60;64.10;;;;;;4890575;29;19984;-82
2021/05/15 12:46:33;;;;;;;;;;;17.50;65.60;;;;;;4890559;29;19969;-82
2021/05/15 12:49:02;;;;;;;;;;;17.60;65.20;;;;;;4889817;29;19923;-81
2021/05/15 12:51:33;;;;;;;;;;;17.50;61.20;;;;;;4871848;29;20006;-82
2021/05/15 12:54:30;;;;;;;;;;;17.40;62.90;;;;;;4870492;29;19924;-80
2021/05/15 12:56:58;;;;;;;;;;;17.40;61.50;;;;;;4863857;29;20342;-80
2021/05/15 12:59:33;;;;;;;;;;;17.40;63.70;;;;;;4876853;29;19927;-81
2021/05/15 13:02:16;;;;;;;;;;;17.70;64.30;;;;;;4879947;29;19923;-82
2021/05/15 13:04:47;;;;;;;;;;;17.70;66.90;;;;;;4895516;29;19923;-82
2021/05/15 13:07:30;;;;;;;;;;;17.70;64.70;;;;;;4880744;29;19958;-82
2021/05/15 13:10:02;;;;;;;;;;;17.70;63.00;;;;;;4877514;29;19930;-75
2021/05/15 13:12:29;;;;;;;;;;;17.70;67.20;;;;;;4886142;29;20026;-78
2021/05/15 13:15:01;;;;;;;;;;;17.70;63.40;;;;;;4885929;29;19930;-78
2021/05/15 13:17:27;;;;;;;;;;;17.50;60.50;;;;;;4886365;29;19923;-78
2021/05/15 13:19:55;;;;;;;;;;;17.50;62.30;;;;;;4886134;29;19979;-78
2021/05/15 13:22:22;;;;;;;;;;;17.40;62.50;;;;;;4872044;29;19930;-78
2021/05/15 13:24:50;;;;;;;;;;;17.40;62.50;;;;;;4890283;29;19966;-79
2021/05/15 13:27:17;;;;;;;;;;;17.30;61.20;;;;;;4906338;29;19927;-80
2021/05/15 13:29:45;;;;;;;;;;;17.30;63.50;;;;;;4901561;29;20366;-79
2021/05/15 13:32:12;;;;;;;;;;;17.30;62.90;;;;;;4871563;29;19975;-79
2021/05/15 13:34:39;;;;;;;;;;;17.30;60.00;;;;;;4890607;29;19931;-80
2021/05/15 13:37:07;;;;;;;;;;;17.40;63.30;;;;;;4905335;29;20036;-76
2021/05/15 13:39:38;;;;;;;;;;;17.50;61.00;;;;;;4904307;29;20030;-79
2021/05/15 13:42:05;;;;;;;;;;;17.30;60.70;;;;;;4905161;29;20042;-79
2021/05/15 13:44:32;;;;;;;;;;;17.10;60.70;;;;;;4904782;29;20151;-79
2021/05/15 13:46:58;;;;;;;;;;;17.00;60.80;;;;;;4905097;29;19947;-79
2021/05/15 13:49:25;;;;;;;;;;;16.90;61.90;;;;;;4904855;29;19923;-79
2021/05/15 13:51:52;;;;;;;;;;;16.80;61.70;;;;;;4905412;29;19978;-79
2021/05/15 13:54:19;;;;;;;;;;;16.80;63.10;;;;;;4905068;29;20368;-79
2021/05/15 13:56:51;;;;;;;;;;;16.90;64.10;;;;;;4890386;29;19966;-79
2021/05/15 13:59:18;;;;;;;;;;;16.80;63.20;;;;;;4904978;29;19930;-79
2021/05/15 14:01:45;;;;;;;;;;;16.80;63.70;;;;;;4904545;29;19946;-81
2021/05/15 14:04:12;;;;;;;;;;;16.80;63.30;;;;;;4889366;29;19930;-79
2021/05/15 14:06:39;;;;;;;;;;;16.80;63.30;;;;;;4889329;29;19923;-80
2021/05/15 14:09:07;;;;;;;;;;;16.80;65.70;;;;;;4900613;29;19923;-79
2021/05/15 14:11:34;;;;;;;;;;;16.70;65.90;;;;;;4904439;29;20381;-78
2021/05/15 14:14:01;;;;;;;;;;;16.70;65.10;;;;;;4905071;29;20045;-79
2021/05/15 14:16:33;;;;;;;;;;;16.70;67.30;;;;;;4889935;29;20025;-79
2021/05/15 14:19:00;;;;;;;;;;;16.80;66.50;;;;;;4889286;29;19923;-80
2021/05/15 14:21:28;;;;;;;;;;;16.80;67.30;;;;;;4889099;29;19958;-79
2021/05/15 14:23:55;;;;;;;;;;;16.80;67.50;;;;;;4889607;29;19930;-79
2021/05/15 14:26:22;;;;;;;;;;;16.80;67.30;;;;;;4904371;29;19923;-79
2021/05/15 14:28:50;;;;;;;;;;;16.80;67.40;;;;;;4889672;29;19929;-79
2021/05/15 14:31:17;;;;;;;;;;;16.80;69.20;;;;;;4888798;29;20378;-79
2021/05/15 14:33:45;;;;;;;;;;;16.60;68.20;;;;;;4901380;29;20026;-79
2021/05/15 14:36:12;;;;;;;;;;;16.50;67.40;;;;;;4885582;29;19928;-78